Time;durP1;ratioP1;P1;durP2;ratioP2;P2;SDS_P1;SDS_P2;PMS_P1;PMS_P2;Temp;Humidity;BMP_temperature;BMP_pressure;BME280_temperature;BME280_humidity;BME280_pressure;Samples;Min_cycle;Max_cycle;Signal;HPM_P1;HPM_P2
2023/02/06 00:01:57;;;;;;;10.43;7.50;;;;;;;-2.31;81.80;103414.22;5002175;28;20293;-68
2023/02/06 00:04:30;;;;;;;8.98;5.57;;;;;;;-2.21;81.33;103405.00;5009385;28;20677;-68
2023/02/06 00:07:01;;;;;;;9.18;6.20;;;;;;;-2.29;81.29;103407.09;5007622;28;20712;-69
2023/02/06 00:09:31;;;;;;;9.75;6.75;;;;;;;-2.10;81.44;103417.84;5028106;28;20185;-70
2023/02/06 00:12:02;;;;;;;11.32;7.35;;;;;;;-2.14;80.29;103418.91;5003459;28;20582;-68
2023/02/06 00:14:36;;;;;;;7.68;6.10;;;;;;;-2.12;79.97;103425.00;5001154;28;20204;-70
2023/02/06 00:17:08;;;;;;;11.88;7.57;;;;;;;-2.30;79.73;103434.53;5001105;28;20221;-68
2023/02/06 00:19:43;;;;;;;8.10;6.05;;;;;;;-2.39;81.11;103434.88;5002891;28;20281;-68
2023/02/06 00:22:13;;;;;;;14.85;8.95;;;;;;;-2.10;80.87;103440.88;5016859;28;20672;-70
2023/02/06 00:24:44;;;;;;;11.90;8.15;;;;;;;-2.08;78.80;103439.88;5006470;28;20309;-70
2023/02/06 00:27:15;;;;;;;9.68;7.20;;;;;;;-2.23;79.42;103448.44;5025535;28;20218;-68
2023/02/06 00:29:46;;;;;;;11.52;7.40;;;;;;;-2.15;80.38;103445.47;5001733;28;20206;-71
2023/02/06 00:32:17;;;;;;;15.15;7.80;;;;;;;-1.95;80.49;103437.63;5002072;28;20229;-70
2023/02/06 00:34:50;;;;;;;9.98;6.75;;;;;;;-1.62;79.93;103444.25;5003166;28;20190;-67
2023/02/06 00:37:21;;;;;;;11.93;7.70;;;;;;;-1.77;78.41;103445.72;5008130;28;20236;-70
2023/02/06 00:39:52;;;;;;;19.17;7.78;;;;;;;-2.04;79.16;103444.16;5006192;28;20212;-70
2023/02/06 00:42:22;;;;;;;9.88;7.75;;;;;;;-2.08;79.81;103439.03;5008764;28;20204;-68
2023/02/06 00:44:53;;;;;;;11.15;7.25;;;;;;;-2.22;79.62;103453.66;4985420;28;20296;-70
2023/02/06 00:47:24;;;;;;;8.20;6.38;;;;;;;-2.20;80.81;103448.31;5013410;28;20233;-68
2023/02/06 00:49:57;;;;;;;9.13;6.60;;;;;;;-2.21;80.21;103444.78;5012006;28;20193;-70
2023/02/06 00:52:28;;;;;;;13.02;7.88;;;;;;;-2.34;81.33;103438.22;4991246;28;20268;-70
2023/02/06 00:54:58;;;;;;;12.07;7.65;;;;;;;-2.24;81.19;103439.63;5016392;28;20593;-71
2023/02/06 00:57:30;;;;;;;12.93;8.75;;;;;;;-2.23;80.49;103441.31;4997075;28;20633;-70
2023/02/06 01:00:02;;;;;;;20.58;8.30;;;;;;;-1.98;81.87;103433.28;5001386;28;20613;-67
2023/02/06 01:02:35;;;;;;;17.75;7.60;;;;;;;-2.11;81.10;103428.50;5017970;28;20204;-69
2023/02/06 01:05:08;;;;;;;11.95;8.50;;;;;;;-2.00;80.16;103434.28;5005998;28;20695;-68
2023/02/06 01:07:39;;;;;;;9.57;7.85;;;;;;;-1.77;81.32;103429.78;5006211;28;20252;-69
2023/02/06 01:10:13;;;;;;;15.18;8.77;;;;;;;-1.95;79.89;103430.53;5011768;28;20197;-69
2023/02/06 01:12:43;;;;;;;14.27;9.02;;;;;;;-1.97;79.30;103428.84;5016186;28;20206;-70
2023/02/06 01:15:17;;;;;;;12.48;9.10;;;;;;;-2.09;79.59;103437.28;5001633;28;20208;-69
2023/02/06 01:17:47;;;;;;;15.75;8.10;;;;;;;-2.06;80.80;103432.72;5000247;28;20204;-70
2023/02/06 01:20:20;;;;;;;10.10;7.00;;;;;;;-1.98;80.46;103437.72;5008812;28;20208;-70
2023/02/06 01:22:51;;;;;;;15.48;9.27;;;;;;;-2.13;80.56;103435.69;4995987;28;20240;-70
2023/02/06 01:25:21;;;;;;;10.38;8.98;;;;;;;-2.12;81.42;103443.56;5007387;28;20214;-69
2023/02/06 01:27:53;;;;;;;16.25;11.13;;;;;;;-2.21;81.63;103436.84;5002221;28;20270;-69
2023/02/06 01:30:24;;;;;;;16.40;8.70;;;;;;;-1.89;81.71;103432.09;4996217;28;20222;-70
2023/02/06 01:32:55;;;;;;;24.48;10.20;;;;;;;-1.94;81.27;103432.28;5000786;28;20197;-69
2023/02/06 01:35:28;;;;;;;15.50;9.90;;;;;;;-2.05;81.49;103430.94;5012509;28;20190;-69
2023/02/06 01:38:01;;;;;;;19.10;10.18;;;;;;;-2.18;81.17;103421.72;5012801;28;20571;-69
2023/02/06 01:40:32;;;;;;;12.00;8.02;;;;;;;-2.27;81.33;103412.31;5018337;28;20672;-68
2023/02/06 01:43:03;;;;;;;26.15;9.75;;;;;;;-2.35;81.17;103406.44;5002201;28;20202;-69
2023/02/06 01:45:42;;;;;;;13.45;9.25;;;;;;;-2.55;81.68;103396.59;4994974;28;20663;-69
2023/02/06 01:48:17;;;;;;;13.82;9.35;;;;;;;-2.53;83.17;103394.75;5018042;28;20720;-67
2023/02/06 01:50:58;;;;;;;12.07;8.82;;;;;;;-2.53;84.33;103383.28;5004023;28;20227;-70
2023/02/06 01:53:32;;;;;;;12.23;8.35;;;;;;;-2.63;83.43;103375.66;5015379;28;20208;-69
2023/02/06 01:56:06;;;;;;;10.88;8.65;;;;;;;-2.25;83.60;103379.50;5010298;28;20229;-68
2023/02/06 01:58:41;;;;;;;14.98;8.57;;;;;;;-2.25;82.87;103387.47;5010191;28;20198;-71
2023/02/06 02:01:12;;;;;;;13.85;9.25;;;;;;;-2.25;83.89;103384.81;5001061;28;20216;-67
2023/02/06 02:03:47;;;;;;;17.08;9.68;;;;;;;-2.09;83.13;103369.19;4999036;28;20225;-69
2023/02/06 02:06:25;;;;;;;19.25;10.50;;;;;;;-2.13;83.32;103366.72;5000072;28;20221;-70
2023/02/06 02:08:58;;;;;;;11.20;7.70;;;;;;;-2.32;82.55;103366.53;4988532;28;20206;-70
2023/02/06 02:11:32;;;;;;;10.23;7.15;;;;;;;-2.59;82.90;103368.47;4999490;28;20194;-70
2023/02/06 02:14:07;;;;;;;14.57;10.13;;;;;;;-2.46;83.53;103363.53;5012189;28;20194;-70
2023/02/06 02:16:46;;;;;;;12.93;9.52;;;;;;;-2.34;83.38;103353.34;5006069;28;20216;-70
2023/02/06 02:19:53;;;;;;;13.93;9.00;;;;;;;-2.35;82.80;103356.91;5007291;28;20700;-69
2023/02/06 02:22:49;;;;;;;11.00;8.48;;;;;;;-2.33;82.46;103344.47;4963912;28;20225;-70
2023/02/06 02:25:54;;;;;;;10.00;7.40;;;;;;;-2.10;82.37;103345.34;5021847;28;20212;-69
2023/02/06 02:29:17;;;;;;;13.80;8.65;;;;;;;-2.09;80.56;103349.72;4997120;28;20641;-68
2023/02/06 02:32:05;;;;;;;13.07;7.15;;;;;;;-1.99;80.00;103353.75;5017494;28;20197;-70
2023/02/06 02:35:15;;;;;;;12.20;7.03;;;;;;;-1.83;78.88;103344.22;5011210;28;20268;-68
2023/02/06 02:38:04;;;;;;;8.65;7.68;;;;;;;-1.99;78.43;103348.44;5010597;28;20284;-71
2023/02/06 02:40:46;;;;;;;10.57;8.07;;;;;;;-1.90;79.43;103340.97;5006648;28;20207;-70
2023/02/06 02:43:35;;;;;;;13.10;8.45;;;;;;;-1.72;78.34;103342.00;4999836;28;20202;-70
2023/02/06 02:46:13;;;;;;;14.25;7.55;;;;;;;-1.65;77.78;103338.19;5010609;28;20217;-69
2023/02/06 02:48:47;;;;;;;12.98;7.45;;;;;;;-1.68;78.08;103332.97;5026944;28;20196;-69
2023/02/06 02:51:21;;;;;;;15.05;8.30;;;;;;;-1.57;77.20;103325.44;5002264;28;20209;-69
2023/02/06 02:53:51;;;;;;;10.38;7.30;;;;;;;-1.55;77.32;103325.38;5012127;28;20194;-70
2023/02/06 02:56:23;;;;;;;11.40;8.70;;;;;;;-1.55;77.16;103320.91;5000504;28;20767;-70
2023/02/06 02:59:00;;;;;;;10.60;7.20;;;;;;;-1.47;76.95;103325.91;5012474;28;20200;-69
2023/02/06 03:01:35;;;;;;;13.30;7.90;;;;;;;-1.39;77.24;103323.78;5007089;28;20205;-68
2023/02/06 03:04:14;;;;;;;10.48;7.43;;;;;;;-1.41;77.31;103315.03;5031095;28;20720;-70
2023/02/06 03:07:07;;;;;;;8.48;6.10;;;;;;;-1.29;76.89;103324.25;5005920;28;20712;-69
2023/02/06 03:09:53;;;;;;;10.75;7.22;;;;;;;-0.98;75.15;103320.19;5011627;28;20208;-70
2023/02/06 03:12:33;;;;;;;11.30;7.40;;;;;;;-1.18;74.86;103332.59;5033889;28;20193;-70
2023/02/06 03:15:08;;;;;;;12.52;8.05;;;;;;;-1.18;75.34;103332.59;5013389;28;20201;-69
2023/02/06 03:17:42;;;;;;;9.23;7.20;;;;;;;-1.08;75.67;103341.91;5007373;28;20473;-69
2023/02/06 03:20:14;;;;;;;11.88;7.65;;;;;;;-1.11;74.55;103334.06;5009984;28;20272;-69
2023/02/06 03:22:51;;;;;;;10.50;7.47;;;;;;;-1.00;73.65;103329.13;5003013;28;20197;-69
2023/02/06 03:25:29;;;;;;;10.60;6.80;;;;;;;-0.92;73.84;103332.34;5010512;28;20294;-67
2023/02/06 03:28:02;;;;;;;10.75;7.25;;;;;;;-0.87;73.08;103333.81;4997362;28;20259;-70
2023/02/06 03:30:34;;;;;;;7.45;6.75;;;;;;;-0.96;74.25;103331.59;4993049;28;20197;-68
2023/02/06 03:33:07;;;;;;;8.68;6.55;;;;;;;-0.92;73.62;103322.53;4997866;28;20676;-70
2023/02/06 03:35:40;;;;;;;11.93;6.57;;;;;;;-0.93;72.17;103318.19;4998959;28;20575;-68
2023/02/06 03:38:12;;;;;;;7.93;6.18;;;;;;;-0.65;71.60;103311.59;4997839;28;20202;-69
2023/02/06 03:40:47;;;;;;;13.70;7.65;;;;;;;-0.69;71.57;103316.19;4997933;28;20586;-68
2023/02/06 03:43:21;;;;;;;8.13;6.40;;;;;;;-0.67;71.22;103309.00;5016551;28;20198;-69
2023/02/06 03:45:56;;;;;;;11.57;7.43;;;;;;;-0.88;71.15;103304.69;5017372;28;20815;-68
2023/02/06 03:48:31;;;;;;;9.02;6.90;;;;;;;-0.82;71.81;103304.38;5008573;28;20225;-68
2023/02/06 03:51:08;;;;;;;7.35;6.35;;;;;;;-0.79;70.99;103306.91;4993519;28;20816;-67
2023/02/06 03:53:44;;;;;;;8.05;6.53;;;;;;;-0.91;70.51;103321.59;5017387;28;20285;-68
2023/02/06 03:56:22;;;;;;;7.82;5.03;;;;;;;-0.88;70.05;103325.94;5032198;28;20315;-69
2023/02/06 03:58:55;;;;;;;8.88;7.35;;;;;;;-0.99;70.38;103333.53;4994970;28;20564;-68
2023/02/06 04:01:26;;;;;;;9.40;7.28;;;;;;;-0.65;71.25;103327.53;5005727;28;20198;-69
2023/02/06 04:03:57;;;;;;;9.57;6.47;;;;;;;-0.62;70.16;103325.59;5004946;28;20209;-70
2023/02/06 04:06:27;;;;;;;9.18;6.18;;;;;;;-0.58;69.43;103326.34;4998057;28;20246;-67
2023/02/06 04:09:00;;;;;;;8.55;6.05;;;;;;;-0.48;69.05;103315.19;4999135;28;20198;-70
2023/02/06 04:11:32;;;;;;;7.43;5.25;;;;;;;-0.63;69.82;103321.19;5000288;28;20586;-68
2023/02/06 04:14:03;;;;;;;9.82;5.75;;;;;;;-0.56;69.76;103321.78;4998069;28;20202;-70
2023/02/06 04:16:36;;;;;;;8.77;6.55;;;;;;;-0.47;68.84;103313.38;4997072;28;20632;-69
2023/02/06 04:19:06;;;;;;;8.05;5.28;;;;;;;-0.60;69.38;103314.91;4997399;28;20202;-68
2023/02/06 04:21:37;;;;;;;6.88;5.80;;;;;;;-0.58;69.77;103308.56;5016752;28;20194;-68
2023/02/06 04:24:09;;;;;;;8.70;5.55;;;;;;;-0.45;69.58;103304.41;5008488;28;20202;-68
2023/02/06 04:26:39;;;;;;;9.75;5.65;;;;;;;-0.21;68.90;103305.03;5003165;28;20226;-68
2023/02/06 04:29:12;;;;;;;20.48;6.20;;;;;;;-0.44;69.24;103307.94;4998534;28;20209;-68
2023/02/06 04:31:43;;;;;;;7.47;6.40;;;;;;;-0.49;70.79;103302.84;4998446;28;20229;-71
2023/02/06 04:34:14;;;;;;;7.47;5.85;;;;;;;-0.44;71.53;103287.47;4996592;28;20202;-68
2023/02/06 04:36:44;;;;;;;11.00;6.30;;;;;;;-0.38;72.85;103293.44;5004200;28;20664;-66
2023/02/06 04:39:18;;;;;;;11.68;4.93;;;;;;;-0.52;72.98;103302.97;4998739;28;20198;-70
2023/02/06 04:41:49;;;;;;;6.88;5.40;;;;;;;-0.62;74.60;103296.34;4997233;28;20235;-69
2023/02/06 04:44:21;;;;;;;10.80;4.93;;;;;;;-0.72;75.33;103284.41;5012108;28;20219;-68
2023/02/06 04:46:52;;;;;;;5.90;5.30;;;;;;;-1.03;77.75;103289.41;5010030;28;20272;-68
2023/02/06 04:49:23;;;;;;;6.28;4.45;;;;;;;-1.17;77.79;103286.50;5026005;28;20228;-68
2023/02/06 04:51:54;;;;;;;5.95;4.65;;;;;;;-1.07;79.24;103278.06;5010187;28;20296;-70
2023/02/06 04:54:27;;;;;;;5.97;4.78;;;;;;;-1.22;81.37;103284.06;5001467;28;20265;-72
2023/02/06 04:56:57;;;;;;;7.43;5.43;;;;;;;-1.38;82.86;103289.19;4989898;28;20222;-69
2023/02/06 04:59:28;;;;;;;8.05;4.85;;;;;;;-1.40;84.28;103291.03;4979856;28;20229;-68
2023/02/06 05:01:58;;;;;;;7.13;6.20;;;;;;;-1.26;85.09;103289.59;4996400;28;20673;-69
2023/02/06 05:04:30;;;;;;;7.55;6.60;;;;;;;-1.22;85.81;103283.19;5004954;28;20671;-69
2023/02/06 05:07:02;;;;;;;13.45;6.38;;;;;;;-1.20;85.66;103286.63;4996471;28;20227;-68
2023/02/06 05:09:37;;;;;;;7.97;5.95;;;;;;;-1.21;86.65;103285.75;5004168;28;20260;-68
2023/02/06 05:12:13;;;;;;;10.68;6.88;;;;;;;-1.13;87.10;103293.41;5003040;28;20208;-70
2023/02/06 05:14:44;;;;;;;11.25;6.32;;;;;;;-1.13;87.18;103288.97;5013953;28;20285;-69
2023/02/06 05:17:14;;;;;;;11.85;7.00;;;;;;;-1.10;86.85;103290.59;5001460;28;20664;-69
2023/02/06 05:19:45;;;;;;;8.90;7.20;;;;;;;-1.21;87.64;103290.25;4996380;28;20614;-68
2023/02/06 05:22:17;;;;;;;13.82;7.43;;;;;;;-1.14;87.96;103289.03;5001895;28;20555;-69
2023/02/06 05:24:48;;;;;;;11.40;6.63;;;;;;;-1.13;87.87;103277.47;5007630;28;20292;-69
2023/02/06 05:27:18;;;;;;;12.07;7.82;;;;;;;-1.06;88.61;103287.75;4996395;28;20276;-71
2023/02/06 05:29:51;;;;;;;10.18;8.02;;;;;;;-1.29;89.75;103285.25;4996304;28;20202;-69
2023/02/06 05:32:21;;;;;;;13.05;7.18;;;;;;;-1.29;90.41;103271.97;4998883;28;20190;-70
2023/02/06 05:34:52;;;;;;;8.60;6.35;;;;;;;-1.18;91.32;103274.16;5028744;28;20220;-68
2023/02/06 05:37:23;;;;;;;9.80;7.45;;;;;;;-1.16;91.61;103274.97;5016462;28;20222;-68
2023/02/06 05:39:56;;;;;;;11.65;7.25;;;;;;;-1.21;91.68;103271.66;5036084;28;20185;-68
2023/02/06 05:42:31;;;;;;;10.23;7.45;;;;;;;-1.15;91.70;103274.00;5024268;28;20209;-70
2023/02/06 05:45:02;;;;;;;12.13;7.90;;;;;;;-1.18;92.02;103268.84;5017889;28;20224;-69
2023/02/06 05:47:34;;;;;;;9.55;7.47;;;;;;;-1.08;92.44;103275.47;5018370;28;20293;-69
2023/02/06 05:50:08;;;;;;;9.82;7.20;;;;;;;-1.15;92.70;103274.88;5040172;28;20186;-68
2023/02/06 05:52:38;;;;;;;9.85;7.25;;;;;;;-1.27;92.74;103277.22;5008568;28;20268;-68
2023/02/06 05:55:15;;;;;;;15.73;9.05;;;;;;;-1.19;94.09;103293.69;5003702;28;20213;-69
2023/02/06 05:57:47;;;;;;;14.50;8.38;;;;;;;-1.27;93.89;103287.84;5025162;28;20197;-70
2023/02/06 06:00:19;;;;;;;14.13;7.68;;;;;;;-1.24;94.05;103291.22;5007854;28;20205;-69
2023/02/06 06:02:51;;;;;;;11.43;8.02;;;;;;;-1.11;94.46;103294.19;5016137;28;20225;-68
2023/02/06 06:05:22;;;;;;;10.82;8.25;;;;;;;-1.15;93.52;103300.56;5016574;28;20233;-69
2023/02/06 06:07:52;;;;;;;11.20;8.55;;;;;;;-1.14;94.08;103302.31;5028109;28;20585;-69
2023/02/06 06:10:28;;;;;;;11.48;7.35;;;;;;;-1.26;95.18;103309.03;5029206;28;20371;-68
2023/02/06 06:12:59;;;;;;;10.20;8.05;;;;;;;-1.19;95.72;103313.16;5011690;28;20201;-68
2023/02/06 06:15:30;;;;;;;8.52;7.30;;;;;;;-1.12;95.33;103316.41;5021671;28;20189;-70
2023/02/06 06:18:00;;;;;;;11.88;8.50;;;;;;;-1.29;94.97;103329.56;5019715;28;20209;-69
2023/02/06 06:20:33;;;;;;;15.63;8.57;;;;;;;-1.22;95.00;103326.59;5002652;28;20216;-70
2023/02/06 06:23:04;;;;;;;12.10;8.35;;;;;;;-1.19;95.52;103331.75;5037924;28;20182;-70
2023/02/06 06:25:37;;;;;;;9.75;7.97;;;;;;;-1.11;94.72;103329.59;5018690;28;20178;-69
2023/02/06 06:28:09;;;;;;;12.07;8.75;;;;;;;-1.14;95.33;103335.06;5038204;28;20220;-69
2023/02/06 06:30:41;;;;;;;12.95;8.25;;;;;;;-1.27;96.33;103333.88;5022260;28;20197;-70
2023/02/06 06:33:13;;;;;;;11.02;9.55;;;;;;;-1.18;95.99;103327.28;5008082;28;20206;-69
2023/02/06 06:35:43;;;;;;;12.75;8.98;;;;;;;-1.22;96.23;103326.59;4999537;28;20309;-70
2023/02/06 06:38:14;;;;;;;11.27;9.05;;;;;;;-1.04;96.61;103320.44;4998591;28;20200;-68
2023/02/06 06:40:47;;;;;;;15.90;10.05;;;;;;;-1.10;95.32;103314.53;4995507;28;20197;-68
2023/02/06 06:43:18;;;;;;;13.77;9.77;;;;;;;-1.18;96.15;103314.88;5011526;28;20202;-71
2023/02/06 06:45:50;;;;;;;13.40;10.25;;;;;;;-1.08;96.10;103321.50;4997537;28;20272;-69
2023/02/06 06:48:21;;;;;;;15.20;9.60;;;;;;;-1.08;96.34;103312.69;4999198;28;20214;-68
2023/02/06 06:50:52;;;;;;;12.77;9.50;;;;;;;-1.11;97.41;103318.97;4999967;28;20224;-69
2023/02/06 06:53:24;;;;;;;13.88;10.32;;;;;;;-1.13;97.56;103309.34;4997435;28;20261;-69
2023/02/06 06:56:02;;;;;;;11.73;9.57;;;;;;;-1.17;98.19;103303.31;5015639;28;20225;-70
2023/02/06 06:58:33;;;;;;;14.00;10.00;;;;;;;-1.00;97.81;103302.56;5021293;28;20205;-67
2023/02/06 07:01:03;;;;;;;20.70;9.82;;;;;;;-1.14;97.79;103300.53;5014768;28;20680;-69
2023/02/06 07:03:35;;;;;;;14.48;10.75;;;;;;;-1.04;98.69;103303.63;4996561;28;20748;-70
2023/02/06 07:06:06;;;;;;;12.82;9.40;;;;;;;-0.95;98.38;103297.91;5018400;28;20221;-69
2023/02/06 07:08:40;;;;;;;13.48;11.43;;;;;;;-0.96;97.97;103302.34;5015757;28;20719;-67
2023/02/06 07:11:14;;;;;;;15.32;10.45;;;;;;;-1.10;98.56;103307.41;4998456;28;20228;-69
2023/02/06 07:13:46;;;;;;;26.45;13.82;;;;;;;-0.99;98.35;103309.59;4999763;28;20703;-69
2023/02/06 07:16:17;;;;;;;17.25;11.38;;;;;;;-0.74;97.20;103310.22;5022291;28;20281;-69
2023/02/06 07:18:48;;;;;;;19.92;12.93;;;;;;;-0.81;96.94;103306.09;5003188;28;20202;-69
2023/02/06 07:21:19;;;;;;;17.52;12.63;;;;;;;-0.68;97.54;103299.31;5021655;28;20213;-68
2023/02/06 07:23:53;;;;;;;22.70;13.65;;;;;;;-0.54;96.16;103304.84;5009341;28;20202;-68
2023/02/06 07:26:26;;;;;;;13.63;11.38;;;;;;;-0.54;96.64;103306.63;4999004;28;20222;-70
2023/02/06 07:28:57;;;;;;;20.50;11.75;;;;;;;-0.60;96.76;103315.75;4990274;28;20225;-69
2023/02/06 07:31:28;;;;;;;13.68;10.35;;;;;;;-0.65;95.97;103316.91;4998539;28;20229;-69
2023/02/06 07:34:01;;;;;;;21.65;11.48;;;;;;;-0.69;97.32;103316.19;5010856;28;20208;-69
2023/02/06 07:36:31;;;;;;;15.13;11.65;;;;;;;-0.66;97.66;103310.72;5007041;28;20250;-69
2023/02/06 07:39:03;;;;;;;14.10;12.38;;;;;;;-0.67;97.24;103309.00;5011312;28;20194;-69
2023/02/06 07:41:36;;;;;;;18.77;11.35;;;;;;;-0.29;96.69;103309.00;5013308;28;20221;-69
2023/02/06 07:44:07;;;;;;;16.85;12.20;;;;;;;-0.27;95.99;103312.44;5022424;28;20197;-68
2023/02/06 07:46:38;;;;;;;16.63;12.85;;;;;;;-0.20;95.74;103317.41;5000407;28;20301;-69
2023/02/06 07:49:08;;;;;;;14.43;12.02;;;;;;;-0.17;94.99;103314.59;5014185;28;20217;-68
2023/02/06 07:51:42;;;;;;;15.80;12.80;;;;;;;-0.31;94.60;103322.38;5000628;28;20668;-69
2023/02/06 07:54:15;;;;;;;17.60;12.43;;;;;;;-0.32;94.83;103314.44;5026668;28;20201;-68
2023/02/06 07:56:51;;;;;;;21.77;14.18;;;;;;;-0.33;94.90;103300.28;4998341;28;20513;-69
2023/02/06 07:59:24;;;;;;;18.38;11.50;;;;;;;-0.17;94.47;103297.75;5009143;28;20691;-68
2023/02/06 08:01:55;;;;;;;18.70;12.90;;;;;;;-0.20;94.70;103303.22;5012542;28;20205;-69
2023/02/06 08:04:28;;;;;;;15.25;11.10;;;;;;;-0.12;95.52;103301.06;4993796;28;20263;-69
2023/02/06 08:06:59;;;;;;;13.93;11.40;;;;;;;-0.02;93.87;103305.00;4993406;28;20320;-69
2023/02/06 08:09:30;;;;;;;15.95;11.40;;;;;;;-0.13;93.50;103304.66;5012536;28;20209;-71
2023/02/06 08:12:05;;;;;;;21.77;12.82;;;;;;;-0.15;93.80;103309.19;5005749;28;20318;-68
2023/02/06 08:14:35;;;;;;;16.60;12.00;;;;;;;-0.16;93.57;103320.78;5008275;28;20267;-68
2023/02/06 08:17:08;;;;;;;21.02;12.45;;;;;;;-0.17;94.34;103309.25;4997600;28;20268;-68
2023/02/06 08:19:39;;;;;;;17.52;12.32;;;;;;;-0.15;93.36;103307.41;5005417;28;20206;-70
2023/02/06 08:22:10;;;;;;;16.35;11.07;;;;;;;-0.04;92.68;103309.53;4982296;28;20198;-68
2023/02/06 08:24:40;;;;;;;21.23;14.68;;;;;;;-0.32;93.23;103311.78;5000301;28;20205;-69
2023/02/06 08:27:13;;;;;;;16.95;11.52;;;;;;;-0.45;95.34;103309.72;4987184;28;20711;-69
2023/02/06 08:29:44;;;;;;;19.55;12.68;;;;;;;-0.47;95.34;103316.91;5004301;28;20280;-70
2023/02/06 08:32:15;;;;;;;16.30;13.05;;;;;;;-0.30;95.44;103312.59;5001962;28;20216;-70
2023/02/06 08:34:45;;;;;;;17.67;13.30;;;;;;;-0.24;94.37;103317.63;5024573;28;20190;-69
2023/02/06 08:37:19;;;;;;;17.05;12.30;;;;;;;-0.20;95.60;103308.56;5009819;28;20222;-69
2023/02/06 08:39:51;;;;;;;15.10;12.25;;;;;;;-0.20;94.96;103306.75;5018648;28;20218;-66
2023/02/06 08:42:24;;;;;;;20.33;11.95;;;;;;;-0.04;94.25;103320.16;4999870;28;20205;-69
2023/02/06 08:44:55;;;;;;;22.73;12.10;;;;;;;0.08;94.55;103313.38;5010368;28;20668;-68
2023/02/06 08:47:26;;;;;;;17.30;11.95;;;;;;;0.28;93.98;103319.47;5004820;28;20226;-69
2023/02/06 08:49:58;;;;;;;20.02;13.30;;;;;;;0.32;92.94;103313.03;5019061;28;20216;-68
2023/02/06 08:52:33;;;;;;;18.23;13.05;;;;;;;0.31;93.32;103321.09;5016761;28;20706;-68
2023/02/06 08:55:04;;;;;;;23.67;13.07;;;;;;;0.28;93.39;103316.78;4999408;28;20221;-67
2023/02/06 08:57:36;;;;;;;26.85;14.57;;;;;;;0.28;93.75;103313.28;5003518;28;20720;-70
2023/02/06 09:00:09;;;;;;;19.05;12.98;;;;;;;0.15;94.24;103318.31;4997531;28;20198;-68
2023/02/06 09:02:41;;;;;;;26.67;13.65;;;;;;;-0.13;95.95;103315.28;5010776;28;20255;-69
2023/02/06 09:05:13;;;;;;;17.50;13.45;;;;;;;-0.02;96.08;103312.97;4998848;28;20216;-69
2023/02/06 09:07:44;;;;;;;33.50;19.15;;;;;;;0.15;95.35;103307.66;5015039;28;20226;-69
2023/02/06 09:10:15;;;;;;;31.38;15.93;;;;;;;0.12;95.56;103305.19;4997696;28;20568;-69
2023/02/06 09:12:59;;;;;;;25.35;15.13;;;;;;;0.39;95.53;103309.09;5021342;28;20201;-69
2023/02/06 09:15:30;;;;;;;22.17;15.80;;;;;;;0.24;95.17;103317.84;5024151;28;20201;-68
2023/02/06 09:18:00;;;;;;;26.58;16.58;;;;;;;0.03;96.79;103312.75;5009539;28;20315;-70
2023/02/06 09:20:30;;;;;;;16.70;13.35;;;;;;;0.15;97.02;103320.97;5010079;28;20268;-67
2023/02/06 09:23:01;;;;;;;31.40;16.85;;;;;;;0.22;97.55;103327.75;5016775;28;20208;-68
2023/02/06 09:25:34;;;;;;;23.25;14.13;;;;;;;0.27;97.21;103335.50;5010755;28;20204;-69
2023/02/06 09:28:07;;;;;;;23.95;15.20;;;;;;;0.28;97.03;103343.44;5013862;28;20231;-69
2023/02/06 09:30:38;;;;;;;26.30;14.70;;;;;;;0.14;98.31;103345.06;5001431;28;20209;-67
2023/02/06 09:33:08;;;;;;;26.95;14.35;;;;;;;-0.12;99.38;103359.63;5013491;28;20217;-69
2023/02/06 09:35:39;;;;;;;27.05;15.00;;;;;;;0.04;99.94;103362.41;5028353;28;20208;-70
2023/02/06 09:38:09;;;;;;;28.75;14.93;;;;;;;0.16;100.00;103360.00;5021009;28;20198;-69
2023/02/06 09:40:40;;;;;;;24.05;15.50;;;;;;;0.19;99.58;103369.66;5019041;28;20224;-67
2023/02/06 09:43:15;;;;;;;31.50;15.48;;;;;;;-0.03;99.96;103373.34;5013067;28;20194;-68
2023/02/06 09:45:53;;;;;;;23.75;16.08;;;;;;;-0.04;100.00;103368.94;5007815;28;20319;-69
2023/02/06 09:48:27;;;;;;;30.50;14.93;;;;;;;-0.01;100.00;103375.94;5000980;28;20236;-70
2023/02/06 09:51:07;;;;;;;24.65;15.45;;;;;;;-0.10;100.00;103371.06;5001517;28;20212;-69
2023/02/06 09:53:48;;;;;;;27.08;15.40;;;;;;;0.04;100.00;103373.06;5007244;28;20208;-71
2023/02/06 09:56:28;;;;;;;32.03;17.20;;;;;;;0.10;100.00;103373.59;5006635;28;20217;-69
2023/02/06 09:59:11;;;;;;;29.85;14.65;;;;;;;0.10;99.97;103376.25;5007772;28;20281;-69
2023/02/06 10:01:45;;;;;;;32.55;15.25;;;;;;;0.11;99.93;103378.00;5004842;28;20198;-69
2023/02/06 10:04:39;;;;;;;25.10;14.52;;;;;;;-0.11;99.36;103374.66;5030443;28;20193;-69
2023/02/06 10:07:32;;;;;;;32.33;15.63;;;;;;;0.05;99.61;103388.09;5001636;28;20217;-68
2023/02/06 10:10:07;;;;;;;24.77;14.93;;;;;;;-0.28;99.80;103395.84;5010946;28;20237;-69
2023/02/06 10:12:44;;;;;;;30.92;16.50;;;;;;;-0.22;100.00;103384.94;5016766;28;20301;-69
2023/02/06 10:15:25;;;;;;;26.63;14.02;;;;;;;-0.11;99.87;103387.97;4987382;28;20193;-69
2023/02/06 10:18:02;;;;;;;31.73;15.85;;;;;;;-0.04;99.40;103390.25;4997158;28;20292;-69
2023/02/06 10:20:41;;;;;;;25.77;17.30;;;;;;;-0.04;99.87;103390.25;5001088;28;20217;-69
2023/02/06 10:23:21;;;;;;;31.48;18.00;;;;;;;0.21;100.00;103395.25;4999120;28;20198;-68
2023/02/06 10:26:00;;;;;;;26.05;15.95;;;;;;;0.28;97.95;103394.03;5007972;28;20271;-68
2023/02/06 10:28:32;;;;;;;23.13;13.65;;;;;;;0.17;97.37;103384.84;5024130;28;20205;-70
2023/02/06 10:31:19;;;;;;;28.45;15.30;;;;;;;0.18;98.02;103375.91;5006465;28;20241;-69
2023/02/06 10:34:01;;;;;;;23.42;14.40;;;;;;;0.34;97.31;103380.41;5007825;28;20213;-69
2023/02/06 10:36:48;;;;;;;27.00;16.02;;;;;;;0.45;97.06;103385.19;5019781;28;20213;-69
2023/02/06 10:39:38;;;;;;;26.00;16.05;;;;;;;0.42;96.07;103372.91;4983331;28;20201;-68
2023/02/06 10:42:19;;;;;;;30.50;16.00;;;;;;;0.35;96.11;103373.28;5025478;28;20244;-68
2023/02/06 10:45:00;;;;;;;24.23;15.90;;;;;;;0.33;96.34;103370.72;4999107;28;20209;-69
2023/02/06 10:47:57;;;;;;;24.55;12.20;;;;;;;0.26;95.64;103365.75;5026541;28;20247;-68
2023/02/06 10:50:33;;;;;;;20.73;11.95;;;;;;;0.36;95.80;103365.22;5022357;28;20248;-69
2023/02/06 10:53:13;;;;;;;23.70;17.02;;;;;;;0.56;95.20;103358.03;4998900;28;20236;-70
2023/02/06 10:55:49;;;;;;;28.05;15.75;;;;;;;0.84;94.49;103358.31;5007045;28;20225;-69
2023/02/06 10:58:26;;;;;;;31.02;20.35;;;;;;;0.80;93.44;103378.97;4990065;28;20194;-69
2023/02/06 11:00:58;;;;;;;20.55;13.50;;;;;;;0.73;92.34;103377.53;5000279;28;20252;-69
2023/02/06 11:03:35;;;;;;;33.17;13.82;;;;;;;0.52;92.63;103367.13;5005328;28;20203;-70
2023/02/06 11:06:11;;;;;;;23.20;14.30;;;;;;;0.39;94.10;103362.38;5010673;28;20288;-69
2023/02/06 11:08:46;;;;;;;31.05;16.33;;;;;;;0.37;93.91;103384.72;4999439;28;20214;-70
2023/02/06 11:11:24;;;;;;;20.38;12.25;;;;;;;0.36;94.53;103388.31;5005478;28;20210;-69
2023/02/06 11:13:57;;;;;;;21.77;13.38;;;;;;;0.34;94.60;103388.38;5013575;28;20688;-69
2023/02/06 11:16:29;;;;;;;29.98;16.77;;;;;;;0.37;94.46;103379.41;5008050;28;20229;-69
2023/02/06 11:19:19;;;;;;;19.50;11.60;;;;;;;0.48;94.32;103376.22;5012251;28;20210;-68
2023/02/06 11:21:56;;;;;;;25.83;15.75;;;;;;;0.40;92.85;103388.09;4989793;28;20216;-69
2023/02/06 11:24:27;;;;;;;18.92;11.93;;;;;;;0.34;93.23;103379.53;5010587;28;20281;-69
2023/02/06 11:27:02;;;;;;;20.10;11.30;;;;;;;0.23;93.99;103387.22;5018633;28;20277;-68
2023/02/06 11:29:39;;;;;;;18.20;13.13;;;;;;;0.27;93.88;103391.44;5001576;28;20660;-70
2023/02/06 11:32:31;;;;;;;21.38;12.45;;;;;;;0.25;93.87;103380.00;5001242;28;20221;-71
2023/02/06 11:35:18;;;;;;;22.05;12.60;;;;;;;0.19;94.14;103390.97;4998270;28;20194;-70
2023/02/06 11:37:54;;;;;;;21.67;12.23;;;;;;;0.12;94.81;103395.72;5023678;28;20202;-69
2023/02/06 11:40:30;;;;;;;20.40;13.50;;;;;;;0.19;95.42;103397.16;5010757;28;20192;-67
2023/02/06 11:43:16;;;;;;;24.58;12.93;;;;;;;0.30;95.02;103393.94;5025005;28;20214;-68
2023/02/06 11:45:48;;;;;;;23.60;13.50;;;;;;;0.28;94.29;103394.03;5007542;28;20782;-68
2023/02/06 11:48:37;;;;;;;20.05;13.68;;;;;;;0.36;94.38;103397.19;5006992;28;20198;-68
2023/02/06 11:51:12;;;;;;;25.73;16.65;;;;;;;0.42;93.79;103393.34;5025501;28;20224;-68